sensor_id;sensor_type;location;lat;lon;timestamp;pressure;altitude;pressure_sealevel;temperature
69785;BMP280;14177;51.520;6.764;2023-05-07T00:00:04;101362.09;;;16.82
69785;BMP280;14177;51.520;6.764;2023-05-07T00:02:35;101361.41;;;16.79
69785;BMP280;14177;51.520;6.764;2023-05-07T00:05:03;101369.31;;;16.77
69785;BMP280;14177;51.520;6.764;2023-05-07T00:07:30;101366.78;;;16.76
69785;BMP280;14177;51.520;6.764;2023-05-07T00:09:57;101367.63;;;16.76
69785;BMP280;14177;51.520;6.764;2023-05-07T00:12:24;101363.34;;;16.75
69785;BMP280;14177;51.520;6.764;2023-05-07T00:14:52;101364.25;;;16.74
69785;BMP280;14177;51.520;6.764;2023-05-07T00:17:19;101359.94;;;16.73
69785;BMP280;14177;51.520;6.764;2023-05-07T00:19:46;101359.16;;;16.71
69785;BMP280;14177;51.520;6.764;2023-05-07T00:22:13;101360.22;;;16.67
69785;BMP280;14177;51.520;6.764;2023-05-07T00:24:40;101357.72;;;16.64
69785;BMP280;14177;51.520;6.764;2023-05-07T00:27:07;101350.94;;;16.60
69785;BMP280;14177;51.520;6.764;2023-05-07T00:29:34;101351.06;;;16.57
69785;BMP280;14177;51.520;6.764;2023-05-07T00:32:01;101339.78;;;16.55
69785;BMP280;14177;51.520;6.764;2023-05-07T00:34:28;101345.97;;;16.54
69785;BMP280;14177;51.520;6.764;2023-05-07T00:36:54;101342.56;;;16.52
69785;BMP280;14177;51.520;6.764;2023-05-07T00:39:21;101335.63;;;16.51
69785;BMP280;14177;51.520;6.764;2023-05-07T00:41:48;101333.00;;;16.51
69785;BMP280;14177;51.520;6.764;2023-05-07T00:44:15;101329.50;;;16.51
69785;BMP280;14177;51.520;6.764;2023-05-07T00:46:42;101339.16;;;16.50
69785;BMP280;14177;51.520;6.764;2023-05-07T00:49:10;101337.31;;;16.52
69785;BMP280;14177;51.520;6.764;2023-05-07T00:51:37;101339.16;;;16.50
69785;BMP280;14177;51.520;6.764;2023-05-07T00:54:05;101333.91;;;16.50
69785;BMP280;14177;51.520;6.764;2023-05-07T00:56:32;101336.59;;;16.49
69785;BMP280;14177;51.520;6.764;2023-05-07T00:59:01;101334.88;;;16.48
69785;BMP280;14177;51.520;6.764;2023-05-07T01:01:29;101329.78;;;16.45
69785;BMP280;14177;51.520;6.764;2023-05-07T01:03:56;101330.66;;;16.45
69785;BMP280;14177;51.520;6.764;2023-05-07T01:06:27;101327.25;;;16.43
69785;BMP280;14177;51.520;6.764;2023-05-07T01:08:56;101332.50;;;16.43
69785;BMP280;14177;51.520;6.764;2023-05-07T01:11:26;101334.34;;;16.41
69785;BMP280;14177;51.520;6.764;2023-05-07T01:13:54;101328.22;;;16.41
69785;BMP280;14177;51.520;6.764;2023-05-07T01:16:26;101323.84;;;16.41
69785;BMP280;14177;51.520;6.764;2023-05-07T01:18:59;101315.09;;;16.41
69785;BMP280;14177;51.520;6.764;2023-05-07T01:21:33;101317.03;;;16.37
69785;BMP280;14177;51.520;6.764;2023-05-07T01:24:07;101324.13;;;16.35
69785;BMP280;14177;51.520;6.764;2023-05-07T01:26:39;101315.34;;;16.36
69785;BMP280;14177;51.520;6.764;2023-05-07T01:29:08;101331.16;;;16.35
69785;BMP280;14177;51.520;6.764;2023-05-07T01:31:38;101319.81;;;16.34
69785;BMP280;14177;51.520;6.764;2023-05-07T01:34:09;101321.50;;;16.35
69785;BMP280;14177;51.520;6.764;2023-05-07T01:36:39;101320.72;;;16.33
69785;BMP280;14177;51.520;6.764;2023-05-07T01:39:13;101322.50;;;16.33
69785;BMP280;14177;51.520;6.764;2023-05-07T01:41:46;101320.81;;;16.30
69785;BMP280;14177;51.520;6.764;2023-05-07T01:44:20;101319.13;;;16.29
69785;BMP280;14177;51.520;6.764;2023-05-07T01:46:52;101319.13;;;16.29
69785;BMP280;14177;51.520;6.764;2023-05-07T01:49:21;101322.66;;;16.28
69785;BMP280;14177;51.520;6.764;2023-05-07T01:51:48;101330.66;;;16.25
69785;BMP280;14177;51.520;6.764;2023-05-07T01:54:15;101327.22;;;16.25
69785;BMP280;14177;51.520;6.764;2023-05-07T01:56:43;101323.72;;;16.24
69785;BMP280;14177;51.520;6.764;2023-05-07T01:59:10;101333.28;;;16.25
69785;BMP280;14177;51.520;6.764;2023-05-07T02:01:37;101326.34;;;16.24
69785;BMP280;14177;51.520;6.764;2023-05-07T02:04:05;101329.88;;;16.23
69785;BMP280;14177;51.520;6.764;2023-05-07T02:06:32;101325.66;;;16.21
69785;BMP280;14177;51.520;6.764;2023-05-07T02:09:03;101331.03;;;16.18
69785;BMP280;14177;51.520;6.764;2023-05-07T02:11:30;101325.94;;;16.15
69785;BMP280;14177;51.520;6.764;2023-05-07T02:13:57;101324.13;;;16.15
69785;BMP280;14177;51.520;6.764;2023-05-07T02:16:24;101319.81;;;16.14
69785;BMP280;14177;51.520;6.764;2023-05-07T02:18:52;101317.28;;;16.13
69785;BMP280;14177;51.520;6.764;2023-05-07T02:21:19;101325.19;;;16.11
69785;BMP280;14177;51.520;6.764;2023-05-07T02:23:46;101323.50;;;16.10
69785;BMP280;14177;51.520;6.764;2023-05-07T02:26:13;101324.41;;;16.09
69785;BMP280;14177;51.520;6.764;2023-05-07T02:28:40;101317.56;;;16.07
69785;BMP280;14177;51.520;6.764;2023-05-07T02:31:07;101323.63;;;16.07
69785;BMP280;14177;51.520;6.764;2023-05-07T02:33:34;101333.28;;;16.07
69785;BMP280;14177;51.520;6.764;2023-05-07T02:36:11;101332.41;;;16.06
69785;BMP280;14177;51.520;6.764;2023-05-07T02:38:45;101325.63;;;16.02
69785;BMP280;14177;51.520;6.764;2023-05-07T02:41:11;101324.91;;;15.99
69785;BMP280;14177;51.520;6.764;2023-05-07T02:43:38;101327.59;;;15.97
69785;BMP280;14177;51.520;6.764;2023-05-07T02:46:08;101323.28;;;15.96
69785;BMP280;14177;51.520;6.764;2023-05-07T02:48:38;101330.38;;;15.94
69785;BMP280;14177;51.520;6.764;2023-05-07T02:51:05;101325.16;;;15.93
69785;BMP280;14177;51.520;6.764;2023-05-07T02:53:34;101320.00;;;15.91
69785;BMP280;14177;51.520;6.764;2023-05-07T02:56:02;101327.00;;;15.91
69785;BMP280;14177;51.520;6.764;2023-05-07T02:58:29;101315.81;;;15.87
69785;BMP280;14177;51.520;6.764;2023-05-07T03:00:57;101312.47;;;15.84
69785;BMP280;14177;51.520;6.764;2023-05-07T03:03:35;101311.63;;;15.83
69785;BMP280;14177;51.520;6.764;2023-05-07T03:06:03;101318.63;;;15.83
69785;BMP280;14177;51.520;6.764;2023-05-07T03:08:30;101323.03;;;15.82
69785;BMP280;14177;51.520;6.764;2023-05-07T03:10:59;101322.25;;;15.81
69785;BMP280;14177;51.520;6.764;2023-05-07T03:13:27;101328.41;;;15.80
69785;BMP280;14177;51.520;6.764;2023-05-07T03:15:54;101336.28;;;15.80
69785;BMP280;14177;51.520;6.764;2023-05-07T03:18:21;101332.88;;;15.78
69785;BMP280;14177;51.520;6.764;2023-05-07T03:20:48;101333.78;;;15.77
69785;BMP280;14177;51.520;6.764;2023-05-07T03:23:17;101337.38;;;15.74
69785;BMP280;14177;51.520;6.764;2023-05-07T03:25:43;101333.91;;;15.74
69785;BMP280;14177;51.520;6.764;2023-05-07T03:28:10;101330.44;;;15.73
69785;BMP280;14177;51.520;6.764;2023-05-07T03:30:43;101332.22;;;15.73
69785;BMP280;14177;51.520;6.764;2023-05-07T03:33:10;101319.94;;;15.73
69785;BMP280;14177;51.520;6.764;2023-05-07T03:35:37;101316.50;;;15.73
69785;BMP280;14177;51.520;6.764;2023-05-07T03:38:05;101316.50;;;15.73
69785;BMP280;14177;51.520;6.764;2023-05-07T03:40:34;101322.66;;;15.72
69785;BMP280;14177;51.520;6.764;2023-05-07T03:43:03;101323.56;;;15.71
69785;BMP280;14177;51.520;6.764;2023-05-07T03:45:31;101323.69;;;15.68
69785;BMP280;14177;51.520;6.764;2023-05-07T03:48:21;101330.63;;;15.69
69785;BMP280;14177;51.520;6.764;2023-05-07T03:50:50;101322.00;;;15.67
69785;BMP280;14177;51.520;6.764;2023-05-07T03:53:19;101322.06;;;15.65
69785;BMP280;14177;51.520;6.764;2023-05-07T03:55:45;101325.59;;;15.64
69785;BMP280;14177;51.520;6.764;2023-05-07T03:58:12;101328.28;;;15.63
69785;BMP280;14177;51.520;6.764;2023-05-07T04:00:40;101331.03;;;15.60
69785;BMP280;14177;51.520;6.764;2023-05-07T04:03:43;101330.13;;;15.61
69785;BMP280;14177;51.520;6.764;2023-05-07T04:06:33;101326.72;;;15.59
69785;BMP280;14177;51.520;6.764;2023-05-07T04:09:13;101331.16;;;15.57
69785;BMP280;14177;51.520;6.764;2023-05-07T04:11:48;101338.22;;;15.55
69785;BMP280;14177;51.520;6.764;2023-05-07T04:14:24;101337.41;;;15.54
69785;BMP280;14177;51.520;6.764;2023-05-07T04:17:01;101342.63;;;15.54
69785;BMP280;14177;51.520;6.764;2023-05-07T04:19:36;101340.94;;;15.53
69785;BMP280;14177;51.520;6.764;2023-05-07T04:22:16;101333.91;;;15.54
69785;BMP280;14177;51.520;6.764;2023-05-07T04:24:48;101333.84;;;15.55
69785;BMP280;14177;51.520;6.764;2023-05-07T04:27:21;101336.47;;;15.55
69785;BMP280;14177;51.520;6.764;2023-05-07T04:29:53;101325.09;;;15.56
69785;BMP280;14177;51.520;6.764;2023-05-07T04:32:32;101326.78;;;15.57
69785;BMP280;14177;51.520;6.764;2023-05-07T04:35:11;101329.47;;;15.56
69785;BMP280;14177;51.520;6.764;2023-05-07T04:37:51;101345.03;;;15.59
69785;BMP280;14177;51.520;6.764;2023-05-07T04:40:35;101342.50;;;15.57
69785;BMP280;14177;51.520;6.764;2023-05-07T04:43:19;101346.03;;;15.56
69785;BMP280;14177;51.520;6.764;2023-05-07T04:46:00;101353.03;;;15.56
69785;BMP280;14177;51.520;6.764;2023-05-07T04:48:38;101343.47;;;15.55
69785;BMP280;14177;51.520;6.764;2023-05-07T04:51:21;101348.78;;;15.53
69785;BMP280;14177;51.520;6.764;2023-05-07T04:54:03;101354.81;;;15.55
69785;BMP280;14177;51.520;6.764;2023-05-07T04:56:55;101348.69;;;15.55
69785;BMP280;14177;51.520;6.764;2023-05-07T04:59:36;101355.66;;;15.56
69785;BMP280;14177;51.520;6.764;2023-05-07T05:02:11;101354.84;;;15.54
69785;BMP280;14177;51.520;6.764;2023-05-07T05:04:45;101352.25;;;15.54
69785;BMP280;14177;51.520;6.764;2023-05-07T05:07:19;101359.19;;;15.55
69785;BMP280;14177;51.520;6.764;2023-05-07T05:09:51;101352.25;;;15.54
69785;BMP280;14177;51.520;6.764;2023-05-07T05:12:27;101353.94;;;15.55
69785;BMP280;14177;51.520;6.764;2023-05-07T05:15:07;101360.84;;;15.57
69785;BMP280;14177;51.520;6.764;2023-05-07T05:17:52;101365.16;;;15.58
69785;BMP280;14177;51.520;6.764;2023-05-07T05:20:20;101362.44;;;15.60
69785;BMP280;14177;51.520;6.764;2023-05-07T05:22:59;101364.09;;;15.62
69785;BMP280;14177;51.520;6.764;2023-05-07T05:25:26;101365.72;;;15.65
69785;BMP280;14177;51.520;6.764;2023-05-07T05:27:56;101363.91;;;15.67
69785;BMP280;14177;51.520;6.764;2023-05-07T05:30:23;101368.13;;;15.69
69785;BMP280;14177;51.520;6.764;2023-05-07T05:32:51;101358.41;;;15.73
69785;BMP280;14177;51.520;6.764;2023-05-07T05:35:18;101359.09;;;15.76
69785;BMP280;14177;51.520;6.764;2023-05-07T05:37:46;101358.00;;;15.82
69785;BMP280;14177;51.520;6.764;2023-05-07T05:40:13;101360.38;;;15.87
69785;BMP280;14177;51.520;6.764;2023-05-07T05:42:40;101365.25;;;15.95
69785;BMP280;14177;51.520;6.764;2023-05-07T05:45:09;101365.88;;;16.01
69785;BMP280;14177;51.520;6.764;2023-05-07T05:47:38;101370.81;;;16.07
69785;BMP280;14177;51.520;6.764;2023-05-07T05:50:07;101374.16;;;16.11
69785;BMP280;14177;51.520;6.764;2023-05-07T05:52:35;101378.25;;;16.16
69785;BMP280;14177;51.520;6.764;2023-05-07T05:55:02;101374.31;;;16.26
69785;BMP280;14177;51.520;6.764;2023-05-07T05:57:29;101372.31;;;16.33
69785;BMP280;14177;51.520;6.764;2023-05-07T05:59:57;101366.81;;;16.39
69785;BMP280;14177;51.520;6.764;2023-05-07T06:02:24;101360.41;;;16.44
69785;BMP280;14177;51.520;6.764;2023-05-07T06:04:52;101371.47;;;16.51
69785;BMP280;14177;51.520;6.764;2023-05-07T06:07:21;101372.81;;;16.59
69785;BMP280;14177;51.520;6.764;2023-05-07T06:09:48;101378.44;;;16.70
69785;BMP280;14177;51.520;6.764;2023-05-07T06:12:15;101379.69;;;16.80
69785;BMP280;14177;51.520;6.764;2023-05-07T06:14:45;101382.66;;;16.91
69785;BMP280;14177;51.520;6.764;2023-05-07T06:17:12;101381.38;;;17.00
69785;BMP280;14177;51.520;6.764;2023-05-07T06:19:39;101382.78;;;17.07
69785;BMP280;14177;51.520;6.764;2023-05-07T06:22:07;101386.78;;;17.13
69785;BMP280;14177;51.520;6.764;2023-05-07T06:24:35;101389.22;;;17.18
69785;BMP280;14177;51.520;6.764;2023-05-07T06:27:04;101389.22;;;17.18
69785;BMP280;14177;51.520;6.764;2023-05-07T06:29:31;101395.09;;;17.23
69785;BMP280;14177;51.520;6.764;2023-05-07T06:32:13;101394.81;;;17.29
69785;BMP280;14177;51.520;6.764;2023-05-07T06:34:42;101398.09;;;17.34
69785;BMP280;14177;51.520;6.764;2023-05-07T06:37:09;101389.00;;;17.41
69785;BMP280;14177;51.520;6.764;2023-05-07T06:39:48;101386.81;;;17.49
69785;BMP280;14177;51.520;6.764;2023-05-07T06:42:15;101391.59;;;17.58
69785;BMP280;14177;51.520;6.764;2023-05-07T06:44:45;101389.59;;;17.63
69785;BMP280;14177;51.520;6.764;2023-05-07T06:47:15;101390.84;;;17.73
69785;BMP280;14177;51.520;6.764;2023-05-07T06:49:44;101393.78;;;17.84
69785;BMP280;14177;51.520;6.764;2023-05-07T06:52:15;101388.56;;;17.99
69785;BMP280;14177;51.520;6.764;2023-05-07T06:54:42;101392.53;;;18.08
69785;BMP280;14177;51.520;6.764;2023-05-07T06:57:10;101397.88;;;18.22
69785;BMP280;14177;51.520;6.764;2023-05-07T06:59:37;101400.38;;;18.25
69785;BMP280;14177;51.520;6.764;2023-05-07T07:02:04;101394.97;;;18.28
69785;BMP280;14177;51.520;6.764;2023-05-07T07:04:31;101391.41;;;18.29
69785;BMP280;14177;51.520;6.764;2023-05-07T07:07:03;101390.47;;;18.30
69785;BMP280;14177;51.520;6.764;2023-05-07T07:09:30;101393.81;;;18.33
69785;BMP280;14177;51.520;6.764;2023-05-07T07:11:59;101397.09;;;18.36
69785;BMP280;14177;51.520;6.764;2023-05-07T07:14:27;101383.72;;;18.41
69785;BMP280;14177;51.520;6.764;2023-05-07T07:17:01;101390.38;;;18.48
69785;BMP280;14177;51.520;6.764;2023-05-07T07:19:35;101391.81;;;18.53
69785;BMP280;14177;51.520;6.764;2023-05-07T07:22:03;101396.91;;;18.56
69785;BMP280;14177;51.520;6.764;2023-05-07T07:24:31;101401.06;;;18.60
69785;BMP280;14177;51.520;6.764;2023-05-07T07:27:01;101394.28;;;18.72
69785;BMP280;14177;51.520;6.764;2023-05-07T07:29:28;101398.72;;;18.87
69785;BMP280;14177;51.520;6.764;2023-05-07T07:31:56;101394.53;;;18.98
69785;BMP280;14177;51.520;6.764;2023-05-07T07:34:23;101398.44;;;19.07
69785;BMP280;14177;51.520;6.764;2023-05-07T07:36:50;101400.50;;;19.17
69785;BMP280;14177;51.520;6.764;2023-05-07T07:39:18;101398.13;;;19.28
69785;BMP280;14177;51.520;6.764;2023-05-07T07:41:48;101403.44;;;19.42
69785;BMP280;14177;51.520;6.764;2023-05-07T07:44:16;101393.63;;;19.59
69785;BMP280;14177;51.520;6.764;2023-05-07T07:46:49;101392.63;;;19.76
69785;BMP280;14177;51.520;6.764;2023-05-07T07:49:18;101401.88;;;19.83
69785;BMP280;14177;51.520;6.764;2023-05-07T07:51:45;101397.47;;;19.83
69785;BMP280;14177;51.520;6.764;2023-05-07T07:54:13;101404.69;;;19.80
69785;BMP280;14177;51.520;6.764;2023-05-07T07:56:40;101396.59;;;19.83
69785;BMP280;14177;51.520;6.764;2023-05-07T07:59:08;101405.66;;;19.93
69785;BMP280;14177;51.520;6.764;2023-05-07T08:01:38;101406.94;;;20.15
69785;BMP280;14177;51.520;6.764;2023-05-07T08:04:05;101405.16;;;20.44
69785;BMP280;14177;51.520;6.764;2023-05-07T08:06:37;101394.97;;;20.66
69785;BMP280;14177;51.520;6.764;2023-05-07T08:09:04;101402.72;;;20.83
69785;BMP280;14177;51.520;6.764;2023-05-07T08:11:32;101402.03;;;20.93
69785;BMP280;14177;51.520;6.764;2023-05-07T08:13:59;101404.75;;;21.05
69785;BMP280;14177;51.520;6.764;2023-05-07T08:16:26;101406.00;;;21.26
69785;BMP280;14177;51.520;6.764;2023-05-07T08:18:54;101406.88;;;21.39
69785;BMP280;14177;51.520;6.764;2023-05-07T08:21:22;101410.47;;;21.38
69785;BMP280;14177;51.520;6.764;2023-05-07T08:23:49;101407.47;;;21.30
69785;BMP280;14177;51.520;6.764;2023-05-07T08:26:16;101401.00;;;21.22
69785;BMP280;14177;51.520;6.764;2023-05-07T08:28:43;101405.00;;;21.15
69785;BMP280;14177;51.520;6.764;2023-05-07T08:31:10;101408.16;;;21.07
69785;BMP280;14177;51.520;6.764;2023-05-07T08:33:39;101405.78;;;21.03
69785;BMP280;14177;51.520;6.764;2023-05-07T08:36:07;101406.84;;;21.00
69785;BMP280;14177;51.520;6.764;2023-05-07T08:38:34;101405.41;;;20.95
69785;BMP280;14177;51.520;6.764;2023-05-07T08:41:01;101409.56;;;20.99
69785;BMP280;14177;51.520;6.764;2023-05-07T08:43:33;101415.31;;;21.05
69785;BMP280;14177;51.520;6.764;2023-05-07T08:46:04;101409.66;;;21.11
69785;BMP280;14177;51.520;6.764;2023-05-07T08:48:37;101413.69;;;21.17
69785;BMP280;14177;51.520;6.764;2023-05-07T08:51:12;101409.88;;;21.21
69785;BMP280;14177;51.520;6.764;2023-05-07T08:53:41;101405.59;;;21.32
69785;BMP280;14177;51.520;6.764;2023-05-07T08:56:12;101410.63;;;21.49
69785;BMP280;14177;51.520;6.764;2023-05-07T08:58:40;101407.78;;;21.52
69785;BMP280;14177;51.520;6.764;2023-05-07T09:01:13;101410.84;;;21.59
69785;BMP280;14177;51.520;6.764;2023-05-07T09:03:45;101412.44;;;21.88
69785;BMP280;14177;51.520;6.764;2023-05-07T09:06:14;101407.81;;;22.16
69785;BMP280;14177;51.520;6.764;2023-05-07T09:08:52;101411.09;;;22.57
69785;BMP280;14177;51.520;6.764;2023-05-07T09:11:23;101409.44;;;22.92
69785;BMP280;14177;51.520;6.764;2023-05-07T09:13:57;101412.53;;;23.22
69785;BMP280;14177;51.520;6.764;2023-05-07T09:16:25;101408.88;;;23.35
69785;BMP280;14177;51.520;6.764;2023-05-07T09:18:54;101414.97;;;23.48
69785;BMP280;14177;51.520;6.764;2023-05-07T09:21:22;101410.69;;;23.69
69785;BMP280;14177;51.520;6.764;2023-05-07T09:23:53;101395.34;;;23.85
69785;BMP280;14177;51.520;6.764;2023-05-07T09:26:25;101397.19;;;24.06
69785;BMP280;14177;51.520;6.764;2023-05-07T09:28:52;101396.88;;;24.22
69785;BMP280;14177;51.520;6.764;2023-05-07T09:31:20;101388.56;;;24.48
69785;BMP280;14177;51.520;6.764;2023-05-07T09:33:48;101389.97;;;24.85
69785;BMP280;14177;51.520;6.764;2023-05-07T09:36:18;101391.63;;;25.19
69785;BMP280;14177;51.520;6.764;2023-05-07T09:38:46;101393.84;;;25.45
69785;BMP280;14177;51.520;6.764;2023-05-07T09:41:13;101388.72;;;25.53
69785;BMP280;14177;51.520;6.764;2023-05-07T09:43:56;101400.91;;;25.56
69785;BMP280;14177;51.520;6.764;2023-05-07T09:46:30;101392.91;;;25.35
69785;BMP280;14177;51.520;6.764;2023-05-07T09:49:07;101393.16;;;25.32
69785;BMP280;14177;51.520;6.764;2023-05-07T09:51:49;101395.41;;;25.48
69785;BMP280;14177;51.520;6.764;2023-05-07T09:54:18;101396.34;;;25.78
69785;BMP280;14177;51.520;6.764;2023-05-07T09:56:49;101391.25;;;26.06
69785;BMP280;14177;51.520;6.764;2023-05-07T09:59:20;101388.50;;;26.17
69785;BMP280;14177;51.520;6.764;2023-05-07T10:01:50;101386.41;;;26.21
69785;BMP280;14177;51.520;6.764;2023-05-07T10:04:20;101386.22;;;26.13
69785;BMP280;14177;51.520;6.764;2023-05-07T10:06:48;101389.16;;;25.90
69785;BMP280;14177;51.520;6.764;2023-05-07T10:09:16;101393.66;;;25.58
69785;BMP280;14177;51.520;6.764;2023-05-07T10:11:44;101394.56;;;25.47
69785;BMP280;14177;51.520;6.764;2023-05-07T10:14:11;101387.44;;;25.48
69785;BMP280;14177;51.520;6.764;2023-05-07T10:16:41;101388.72;;;25.74
69785;BMP280;14177;51.520;6.764;2023-05-07T10:19:14;101385.66;;;26.09
69785;BMP280;14177;51.520;6.764;2023-05-07T10:22:05;101378.91;;;26.35
69785;BMP280;14177;51.520;6.764;2023-05-07T10:24:38;101384.75;;;26.50
69785;BMP280;14177;51.520;6.764;2023-05-07T10:27:13;101380.88;;;26.63
69785;BMP280;14177;51.520;6.764;2023-05-07T10:32:48;101384.78;;;26.59
69785;BMP280;14177;51.520;6.764;2023-05-07T10:35:29;101380.91;;;26.43
69785;BMP280;14177;51.520;6.764;2023-05-07T10:38:01;101393.06;;;26.36
69785;BMP280;14177;51.520;6.764;2023-05-07T10:40:33;101388.53;;;26.27
69785;BMP280;14177;51.520;6.764;2023-05-07T10:43:04;101383.50;;;26.33
69785;BMP280;14177;51.520;6.764;2023-05-07T10:45:41;101376.78;;;26.29
69785;BMP280;14177;51.520;6.764;2023-05-07T10:48:13;101381.75;;;26.13
69785;BMP280;14177;51.520;6.764;2023-05-07T10:51:21;101393.84;;;26.17
69785;BMP280;14177;51.520;6.764;2023-05-07T10:56:49;101380.50;;;26.17
69785;BMP280;14177;51.520;6.764;2023-05-07T11:02:05;101385.88;;;25.66
69785;BMP280;14177;51.520;6.764;2023-05-07T11:05:22;101384.38;;;25.52
69785;BMP280;14177;51.520;6.764;2023-05-07T11:08:12;101375.94;;;25.47
69785;BMP280;14177;51.520;6.764;2023-05-07T11:10:54;101382.25;;;25.35
69785;BMP280;14177;51.520;6.764;2023-05-07T11:13:47;101374.97;;;25.48
69785;BMP280;14177;51.520;6.764;2023-05-07T11:16:33;101374.00;;;25.70
69785;BMP280;14177;51.520;6.764;2023-05-07T11:22:55;101373.94;;;26.21
69785;BMP280;14177;51.520;6.764;2023-05-07T11:25:32;101368.19;;;26.46
69785;BMP280;14177;51.520;6.764;2023-05-07T11:28:10;101361.03;;;26.86
69785;BMP280;14177;51.520;6.764;2023-05-07T11:30:57;101362.50;;;27.09
69785;BMP280;14177;51.520;6.764;2023-05-07T11:33:25;101357.88;;;27.30
69785;BMP280;14177;51.520;6.764;2023-05-07T11:35:57;101368.13;;;27.25
69785;BMP280;14177;51.520;6.764;2023-05-07T11:38:35;101359.13;;;27.35
69785;BMP280;14177;51.520;6.764;2023-05-07T11:41:03;101361.09;;;27.52
69785;BMP280;14177;51.520;6.764;2023-05-07T11:43:32;101364.75;;;27.61
69785;BMP280;14177;51.520;6.764;2023-05-07T11:46:10;101358.00;;;27.76
69785;BMP280;14177;51.520;6.764;2023-05-07T11:48:38;101359.53;;;27.88
69785;BMP280;14177;51.520;6.764;2023-05-07T11:51:07;101358.59;;;27.79
69785;BMP280;14177;51.520;6.764;2023-05-07T11:53:42;101368.97;;;27.54
69785;BMP280;14177;51.520;6.764;2023-05-07T11:56:12;101358.31;;;27.26
69785;BMP280;14177;51.520;6.764;2023-05-07T11:58:41;101359.28;;;27.15
69785;BMP280;14177;51.520;6.764;2023-05-07T12:01:10;101359.63;;;27.01
69785;BMP280;14177;51.520;6.764;2023-05-07T12:03:40;101370.16;;;26.93
69785;BMP280;14177;51.520;6.764;2023-05-07T12:06:14;101366.09;;;26.89
69785;BMP280;14177;51.520;6.764;2023-05-07T12:08:42;101366.38;;;26.86
69785;BMP280;14177;51.520;6.764;2023-05-07T12:11:16;101367.34;;;26.95
69785;BMP280;14177;51.520;6.764;2023-05-07T12:13:44;101366.13;;;27.08
69785;BMP280;14177;51.520;6.764;2023-05-07T12:16:12;101364.47;;;27.17
69785;BMP280;14177;51.520;6.764;2023-05-07T12:18:39;101367.63;;;27.01
69785;BMP280;14177;51.520;6.764;2023-05-07T12:21:07;101366.22;;;26.78
69785;BMP280;14177;51.520;6.764;2023-05-07T12:23:36;101374.13;;;26.59
69785;BMP280;14177;51.520;6.764;2023-05-07T12:26:04;101370.66;;;26.38
69785;BMP280;14177;51.520;6.764;2023-05-07T12:28:38;101375.66;;;26.22
69785;BMP280;14177;51.520;6.764;2023-05-07T12:31:06;101366.88;;;26.11
69785;BMP280;14177;51.520;6.764;2023-05-07T12:33:35;101371.03;;;26.04
69785;BMP280;14177;51.520;6.764;2023-05-07T12:36:07;101371.00;;;25.95
69785;BMP280;14177;51.520;6.764;2023-05-07T12:38:39;101378.31;;;25.82
69785;BMP280;14177;51.520;6.764;2023-05-07T12:41:09;101376.19;;;25.65
69785;BMP280;14177;51.520;6.764;2023-05-07T12:43:36;101368.66;;;25.49
69785;BMP280;14177;51.520;6.764;2023-05-07T12:46:07;101376.19;;;25.44
69785;BMP280;14177;51.520;6.764;2023-05-07T12:48:37;101377.63;;;25.48
69785;BMP280;14177;51.520;6.764;2023-05-07T12:51:05;101376.59;;;25.40
69785;BMP280;14177;51.520;6.764;2023-05-07T12:53:40;101375.75;;;25.28
69785;BMP280;14177;51.520;6.764;2023-05-07T12:56:10;101380.28;;;25.17
69785;BMP280;14177;51.520;6.764;2023-05-07T12:58:38;101383.97;;;25.14
69785;BMP280;14177;51.520;6.764;2023-05-07T13:01:07;101375.78;;;25.17
69785;BMP280;14177;51.520;6.764;2023-05-07T13:03:37;101379.06;;;25.21
69785;BMP280;14177;51.520;6.764;2023-05-07T13:06:08;101381.97;;;25.18
69785;BMP280;14177;51.520;6.764;2023-05-07T13:08:41;101382.09;;;25.16
69785;BMP280;14177;51.520;6.764;2023-05-07T13:11:12;101384.75;;;25.16
69785;BMP280;14177;51.520;6.764;2023-05-07T13:13:41;101379.88;;;25.21
69785;BMP280;14177;51.520;6.764;2023-05-07T13:16:10;101385.47;;;25.18
69785;BMP280;14177;51.520;6.764;2023-05-07T13:18:39;101386.56;;;25.16
69785;BMP280;14177;51.520;6.764;2023-05-07T13:21:07;101387.53;;;25.15
69785;BMP280;14177;51.520;6.764;2023-05-07T13:23:34;101384.88;;;25.15
69785;BMP280;14177;51.520;6.764;2023-05-07T13:26:01;101385.09;;;25.12
69785;BMP280;14177;51.520;6.764;2023-05-07T13:28:37;101388.16;;;25.07
69785;BMP280;14177;51.520;6.764;2023-05-07T13:31:04;101390.91;;;25.06
69785;BMP280;14177;51.520;6.764;2023-05-07T13:33:31;101392.84;;;25.04
69785;BMP280;14177;51.520;6.764;2023-05-07T13:35:58;101394.56;;;24.94
69785;BMP280;14177;51.520;6.764;2023-05-07T13:38:27;101395.69;;;24.80
69785;BMP280;14177;51.520;6.764;2023-05-07T13:40:54;101396.78;;;24.67
69785;BMP280;14177;51.520;6.764;2023-05-07T13:43:21;101401.63;;;24.51
69785;BMP280;14177;51.520;6.764;2023-05-07T13:45:48;101404.72;;;24.34
69785;BMP280;14177;51.520;6.764;2023-05-07T13:48:14;101409.78;;;24.26
69785;BMP280;14177;51.520;6.764;2023-05-07T13:50:41;101406.75;;;24.09
69785;BMP280;14177;51.520;6.764;2023-05-07T13:53:08;101406.63;;;23.99
69785;BMP280;14177;51.520;6.764;2023-05-07T13:55:35;101418.38;;;23.84
69785;BMP280;14177;51.520;6.764;2023-05-07T13:58:02;101415.38;;;23.65
69785;BMP280;14177;51.520;6.764;2023-05-07T14:00:33;101413.63;;;23.53
69785;BMP280;14177;51.520;6.764;2023-05-07T14:03:00;101428.75;;;23.40
69785;BMP280;14177;51.520;6.764;2023-05-07T14:05:27;101415.19;;;23.22
69785;BMP280;14177;51.520;6.764;2023-05-07T14:07:57;101422.16;;;22.87
69785;BMP280;14177;51.520;6.764;2023-05-07T14:10:24;101430.34;;;22.59
69785;BMP280;14177;51.520;6.764;2023-05-07T14:12:52;101432.41;;;22.43
69785;BMP280;14177;51.520;6.764;2023-05-07T14:15:19;101439.47;;;22.30
69785;BMP280;14177;51.520;6.764;2023-05-07T14:17:55;101434.03;;;22.19
69785;BMP280;14177;51.520;6.764;2023-05-07T14:20:24;101441.88;;;22.08
69785;BMP280;14177;51.520;6.764;2023-05-07T14:22:51;101442.69;;;21.96
69785;BMP280;14177;51.520;6.764;2023-05-07T14:25:18;101443.44;;;21.86
69785;BMP280;14177;51.520;6.764;2023-05-07T14:27:49;101448.78;;;21.72